createdAt,value
2019-03-16T00:01:17.708Z,12.00
2019-03-16T00:03:51.886Z,12.00
2019-03-16T00:10:09.508Z,12.10
2019-03-16T00:12:24.722Z,12.20
2019-03-16T00:15:15.816Z,12.20
2019-03-16T00:21:22.949Z,12.10
2019-03-16T00:23:53.935Z,12.20
2019-03-16T00:26:29.561Z,12.20
2019-03-16T00:29:01.743Z,12.20
2019-03-16T00:35:16.305Z,12.20
2019-03-16T00:40:45.453Z,12.20
2019-03-16T00:46:11.988Z,12.30
2019-03-16T00:51:59.898Z,12.20
2019-03-16T00:55:03.065Z,12.10
2019-03-16T00:57:46.851Z,12.00
2019-03-16T01:03:16.989Z,12.00
2019-03-16T01:06:00.839Z,11.90
2019-03-16T01:08:48.292Z,11.90
2019-03-16T01:11:33.177Z,11.90
2019-03-16T01:14:17.202Z,11.80
2019-03-16T01:17:03.020Z,11.80
2019-03-16T01:19:46.399Z,11.80
2019-03-16T01:22:31.865Z,11.80
2019-03-16T01:25:14.754Z,11.70
2019-03-16T01:28:07.406Z,11.70
2019-03-16T01:30:51.247Z,11.60
2019-03-16T01:33:35.783Z,11.60
2019-03-16T01:36:17.038Z,11.60
2019-03-16T01:39:03.371Z,11.70
2019-03-16T01:41:46.950Z,11.60
2019-03-16T01:44:30.010Z,11.60
2019-03-16T01:47:16.448Z,11.70
2019-03-16T01:53:10.670Z,11.70
2019-03-16T01:55:54.180Z,11.70
2019-03-16T01:58:38.877Z,11.70
2019-03-16T02:01:25.719Z,11.60
2019-03-16T02:04:07.271Z,11.60
2019-03-16T02:06:50.171Z,11.60
2019-03-16T02:09:33.435Z,11.70
2019-03-16T02:12:16.920Z,11.70
2019-03-16T02:15:00.710Z,11.60
2019-03-16T02:21:12.040Z,11.60
2019-03-16T02:26:40.700Z,11.60
2019-03-16T02:29:27.552Z,11.70
2019-03-16T02:32:10.307Z,11.70
2019-03-16T02:35:14.289Z,11.70
2019-03-16T02:37:58.354Z,11.60
2019-03-16T02:40:42.061Z,11.60
2019-03-16T02:43:14.809Z,11.60
2019-03-16T02:45:47.246Z,11.60
2019-03-16T02:48:57.638Z,11.60
2019-03-16T02:51:48.723Z,11.50
2019-03-16T02:54:30.011Z,11.50
2019-03-16T02:57:13.335Z,11.50
2019-03-16T03:00:01.438Z,11.50
2019-03-16T03:02:44.109Z,11.50
2019-03-16T03:05:26.134Z,11.50
2019-03-16T03:08:10.017Z,11.50
2019-03-16T03:10:58.013Z,11.50
2019-03-16T03:13:41.497Z,11.50
2019-03-16T03:16:26.400Z,11.40
2019-03-16T03:19:12.428Z,11.40
2019-03-16T03:21:55.410Z,11.20
2019-03-16T03:24:43.801Z,11.20
2019-03-16T03:27:33.858Z,11.10
2019-03-16T03:33:01.005Z,11.10
2019-03-16T03:35:46.270Z,11.10
2019-03-16T03:38:27.751Z,11.10
2019-03-16T03:41:11.254Z,11.10
2019-03-16T03:43:56.406Z,11.00
2019-03-16T03:46:41.499Z,11.00
2019-03-16T03:49:23.512Z,11.10
2019-03-16T03:52:07.105Z,11.00
2019-03-16T03:54:48.588Z,11.00
2019-03-16T03:57:31.954Z,10.90
2019-03-16T04:00:14.407Z,10.90
2019-03-16T04:02:57.354Z,10.90
2019-03-16T04:05:38.829Z,11.00
2019-03-16T04:08:21.582Z,11.00
2019-03-16T04:11:03.726Z,10.90
2019-03-16T04:13:45.881Z,10.90
2019-03-16T04:16:27.202Z,10.90
2019-03-16T04:19:10.221Z,11.00
2019-03-16T04:21:52.309Z,11.00
2019-03-16T04:24:35.646Z,11.00
2019-03-16T04:27:23.032Z,10.90
2019-03-16T04:32:57.384Z,10.80
2019-03-16T04:35:28.325Z,10.90
2019-03-16T04:38:18.470Z,10.80
2019-03-16T04:43:45.659Z,10.80
2019-03-16T04:46:31.231Z,10.80
2019-03-16T04:49:00.469Z,10.70
2019-03-16T04:51:51.418Z,10.80
2019-03-16T04:54:35.222Z,10.80
2019-03-16T04:57:20.844Z,10.90
2019-03-16T05:00:02.478Z,10.80
2019-03-16T05:02:45.707Z,10.80
2019-03-16T05:05:27.161Z,10.80
2019-03-16T05:08:09.922Z,10.80
2019-03-16T05:16:43.170Z,10.90
2019-03-16T05:19:29.654Z,10.90
2019-03-16T05:22:11.929Z,10.80
2019-03-16T05:24:56.542Z,10.80
2019-03-16T05:27:40.416Z,10.80
2019-03-16T05:30:14.740Z,10.80
2019-03-16T05:33:08.095Z,10.70
2019-03-16T05:38:38.099Z,10.80
2019-03-16T05:41:24.687Z,10.80
2019-03-16T05:44:08.289Z,10.80
2019-03-16T05:47:07.861Z,10.80
2019-03-16T05:49:49.845Z,10.80
2019-03-16T05:52:39.945Z,10.80
2019-03-16T05:55:24.341Z,10.90
2019-03-16T05:58:09.182Z,10.90
2019-03-16T06:01:01.064Z,10.90
2019-03-16T06:06:28.476Z,11.00
2019-03-16T06:12:11.555Z,11.00
2019-03-16T06:17:48.226Z,11.00
2019-03-16T06:20:27.684Z,11.00
2019-03-16T06:23:17.961Z,11.00
2019-03-16T06:26:04.606Z,11.00
2019-03-16T06:28:49.469Z,11.00
2019-03-16T06:31:38.677Z,11.00
2019-03-16T06:34:20.410Z,11.00
2019-03-16T06:37:27.098Z,11.00
2019-03-16T06:39:40.872Z,11.00
2019-03-16T06:45:37.608Z,11.00
2019-03-16T06:51:08.347Z,11.00
2019-03-16T06:53:52.466Z,10.90
2019-03-16T06:56:34.951Z,10.90
2019-03-16T06:59:32.607Z,11.00
2019-03-16T07:02:24.035Z,11.00
2019-03-16T07:05:04.755Z,11.00
2019-03-16T07:08:11.205Z,11.00
2019-03-16T07:11:08.291Z,11.00
2019-03-16T07:14:18.197Z,11.10
2019-03-16T07:17:19.786Z,11.10
2019-03-16T07:19:50.495Z,11.20
2019-03-16T07:25:43.364Z,11.30
2019-03-16T07:33:54.387Z,11.50
2019-03-16T07:36:43.697Z,11.50
2019-03-16T07:42:07.063Z,11.50
2019-03-16T07:45:08.487Z,11.50
2019-03-16T07:47:55.115Z,11.60
2019-03-16T07:50:45.846Z,11.60
2019-03-16T07:53:31.830Z,11.70
2019-03-16T07:58:58.831Z,11.80
2019-03-16T08:01:52.443Z,11.90
2019-03-16T08:04:35.565Z,11.90
2019-03-16T08:07:19.643Z,12.00
2019-03-16T08:10:03.072Z,12.10
2019-03-16T08:12:46.183Z,12.10
2019-03-16T08:18:49.498Z,12.10
2019-03-16T08:24:05.036Z,12.20
2019-03-16T08:26:45.356Z,12.30
2019-03-16T08:30:02.075Z,12.30
2019-03-16T08:35:30.530Z,12.20
2019-03-16T08:38:10.687Z,12.30
2019-03-16T08:40:41.124Z,12.30
2019-03-16T08:43:17.377Z,12.30
2019-03-16T08:45:50.318Z,12.30
2019-03-16T08:48:43.783Z,12.30
2019-03-16T08:51:24.163Z,12.30
2019-03-16T08:53:55.862Z,12.30
2019-03-16T08:56:36.761Z,12.40
2019-03-16T08:59:07.071Z,12.40
2019-03-16T09:01:41.860Z,12.50
2019-03-16T09:12:54.971Z,12.70
2019-03-16T09:15:46.937Z,12.80
2019-03-16T09:18:17.732Z,12.90
2019-03-16T09:21:07.776Z,13.00
2019-03-16T09:23:39.006Z,13.10
2019-03-16T09:26:09.096Z,13.10
2019-03-16T09:28:39.651Z,13.20
2019-03-16T09:31:10.858Z,13.10
2019-03-16T09:33:45.867Z,13.10
2019-03-16T09:36:17.971Z,13.10
2019-03-16T09:39:09.903Z,13.10
2019-03-16T09:41:40.250Z,13.10
2019-03-16T09:44:30.495Z,13.10
2019-03-16T09:47:04.838Z,13.10
2019-03-16T09:49:35.865Z,13.20
2019-03-16T09:52:26.029Z,13.30
2019-03-16T09:58:31.113Z,13.40
2019-03-16T10:01:36.557Z,13.40
2019-03-16T10:04:22.849Z,13.50
2019-03-16T10:07:12.123Z,13.50
2019-03-16T10:09:54.242Z,13.50
2019-03-16T10:12:40.640Z,13.60
2019-03-16T10:15:11.793Z,13.70
2019-03-16T10:17:43.641Z,13.80
2019-03-16T10:20:46.048Z,13.80
2019-03-16T10:26:12.690Z,13.90
2019-03-16T10:28:47.016Z,13.90
2019-03-16T10:31:37.583Z,13.90
2019-03-16T10:34:09.957Z,13.90
2019-03-16T10:36:39.874Z,13.90
2019-03-16T10:41:58.843Z,13.90
2019-03-16T10:44:35.946Z,14.00
2019-03-16T10:49:59.095Z,14.10
2019-03-16T10:52:32.027Z,14.20
2019-03-16T10:55:07.646Z,14.30
2019-03-16T10:57:58.899Z,14.40
2019-03-16T11:00:47.816Z,14.50
2019-03-16T11:03:44.636Z,14.50
2019-03-16T11:06:14.936Z,14.50
2019-03-16T11:09:07.554Z,14.60
2019-03-16T11:12:13.211Z,14.80
2019-03-16T11:14:44.750Z,14.90
2019-03-16T11:17:18.451Z,15.00
2019-03-16T11:19:55.047Z,15.10
2019-03-16T11:22:35.317Z,15.10
2019-03-16T11:25:39.942Z,15.10
2019-03-16T11:28:12.172Z,15.10
2019-03-16T11:31:01.773Z,15.10
2019-03-16T11:33:55.177Z,15.20
2019-03-16T11:36:45.454Z,15.30
2019-03-16T11:39:18.252Z,15.40
2019-03-16T11:41:56.355Z,15.50
2019-03-16T11:44:30.389Z,15.50
2019-03-16T11:47:04.237Z,15.60
2019-03-16T11:49:55.191Z,15.60
2019-03-16T11:52:26.389Z,15.60
2019-03-16T11:54:58.748Z,15.50
2019-03-16T11:57:31.204Z,15.50
2019-03-16T12:00:33.684Z,15.50
2019-03-16T12:03:41.748Z,15.50
2019-03-16T12:06:34.069Z,15.50
2019-03-16T12:09:23.256Z,15.50
2019-03-16T12:11:56.108Z,15.60
2019-03-16T12:14:45.898Z,15.60
2019-03-16T12:17:28.327Z,15.70
2019-03-16T12:19:59.455Z,15.80
2019-03-16T12:26:47.884Z,15.70
2019-03-16T12:29:40.302Z,15.80
2019-03-16T12:32:22.591Z,15.80
2019-03-16T12:38:40.617Z,15.80
2019-03-16T12:41:33.084Z,15.80
2019-03-16T12:44:07.270Z,15.80
2019-03-16T12:47:32.395Z,15.90
2019-03-16T12:50:24.192Z,16.00
2019-03-16T12:53:18.746Z,16.10
2019-03-16T12:56:04.093Z,16.10
2019-03-16T12:58:56.176Z,16.20
2019-03-16T13:01:28.994Z,16.30
2019-03-16T13:04:32.423Z,16.30
2019-03-16T13:07:23.015Z,16.30
2019-03-16T13:10:07.277Z,16.30
2019-03-16T13:12:39.440Z,16.40
2019-03-16T13:15:29.160Z,16.50
2019-03-16T13:18:02.492Z,16.50
2019-03-16T13:20:56.791Z,16.50
2019-03-16T13:23:29.953Z,16.60
2019-03-16T13:26:19.584Z,16.60
2019-03-16T13:28:59.344Z,16.80
2019-03-16T13:31:46.766Z,16.80
2019-03-16T13:34:33.594Z,16.80
2019-03-16T13:37:27.199Z,16.80
2019-03-16T13:40:11.902Z,16.90
2019-03-16T13:42:52.662Z,16.90
2019-03-16T13:46:01.769Z,17.00
2019-03-16T13:48:41.844Z,17.00
2019-03-16T13:51:23.212Z,17.00
2019-03-16T13:57:34.862Z,17.10
2019-03-16T14:00:19.706Z,17.00
2019-03-16T14:02:50.714Z,16.90
2019-03-16T14:05:28.537Z,17.10
2019-03-16T14:08:02.180Z,17.10
2019-03-16T14:10:39.426Z,17.20
2019-03-16T14:13:40.990Z,17.30
2019-03-16T14:16:31.022Z,17.30
2019-03-16T14:19:21.333Z,17.30
2019-03-16T14:22:06.622Z,17.40
2019-03-16T14:24:58.219Z,17.50
2019-03-16T14:27:52.241Z,17.50
2019-03-16T14:30:39.936Z,17.60
2019-03-16T14:33:21.931Z,17.70
2019-03-16T14:36:06.010Z,17.80
2019-03-16T14:38:54.551Z,17.90
2019-03-16T14:41:38.150Z,18.00
2019-03-16T14:44:10.854Z,18.10
2019-03-16T14:47:14.345Z,18.10
2019-03-16T14:50:05.346Z,18.20
2019-03-16T14:52:40.640Z,18.30
2019-03-16T14:55:39.809Z,18.40
2019-03-16T14:58:30.251Z,18.50
2019-03-16T15:01:33.824Z,18.60
2019-03-16T15:04:27.558Z,18.60
2019-03-16T15:07:18.699Z,18.70
2019-03-16T15:09:53.450Z,18.90
2019-03-16T15:12:30.215Z,19.00
2019-03-16T15:15:22.856Z,18.90
2019-03-16T15:18:11.699Z,18.90
2019-03-16T15:20:47.932Z,18.90
2019-03-16T15:23:22.888Z,18.80
2019-03-16T15:26:11.800Z,18.70
2019-03-16T15:28:54.929Z,18.50
2019-03-16T15:31:39.597Z,18.40
2019-03-16T15:34:19.856Z,18.30
2019-03-16T15:36:55.195Z,18.20
2019-03-16T15:39:27.330Z,18.10
2019-03-16T15:42:03.971Z,18.00
2019-03-16T15:44:44.352Z,17.90
2019-03-16T15:47:16.397Z,17.80
2019-03-16T15:50:05.811Z,17.80
2019-03-16T15:52:43.258Z,17.70
2019-03-16T15:55:14.621Z,17.60
2019-03-16T15:58:08.259Z,17.50
2019-03-16T16:00:40.868Z,17.50
2019-03-16T16:03:18.358Z,17.50
2019-03-16T16:05:59.309Z,17.40
2019-03-16T16:08:36.230Z,17.30
2019-03-16T16:11:07.694Z,17.30
2019-03-16T16:13:55.569Z,17.30
2019-03-16T16:16:46.311Z,17.30
2019-03-16T16:19:21.828Z,17.20
2019-03-16T16:22:17.053Z,17.20
2019-03-16T16:24:48.119Z,17.20
2019-03-16T16:27:19.643Z,17.00
2019-03-16T16:30:03.359Z,16.90
2019-03-16T16:32:59.333Z,16.80
2019-03-16T16:35:40.009Z,16.80
2019-03-16T16:38:17.785Z,16.70
2019-03-16T16:40:51.264Z,16.70
2019-03-16T16:43:42.440Z,16.60
2019-03-16T16:46:14.425Z,16.50
2019-03-16T16:48:45.373Z,16.40
2019-03-16T16:51:22.310Z,16.40
2019-03-16T16:54:01.403Z,16.40
2019-03-16T16:56:47.317Z,16.40
2019-03-16T16:59:36.605Z,16.40
2019-03-16T17:02:17.863Z,16.30
2019-03-16T17:05:09.711Z,16.20
2019-03-16T17:07:43.311Z,16.20
2019-03-16T17:10:35.434Z,16.10
2019-03-16T17:13:06.862Z,16.10
2019-03-16T17:15:57.852Z,16.00
2019-03-16T17:18:38.192Z,16.00
2019-03-16T17:21:09.642Z,15.90
2019-03-16T17:23:58.666Z,15.80
2019-03-16T17:26:52.706Z,15.70
2019-03-16T17:29:26.536Z,15.50
2019-03-16T17:32:05.526Z,15.30
2019-03-16T17:34:57.996Z,15.20
2019-03-16T17:37:49.585Z,15.10
2019-03-16T17:40:51.574Z,15.00
2019-03-16T17:43:29.445Z,14.90
2019-03-16T17:46:04.837Z,14.80
2019-03-16T17:48:37.794Z,14.80
2019-03-16T17:51:23.084Z,14.70
2019-03-16T17:53:58.724Z,14.60
2019-03-16T17:56:48.110Z,14.50
2019-03-16T17:59:27.240Z,14.40
2019-03-16T18:02:14.457Z,14.30
2019-03-16T18:04:47.932Z,14.20
2019-03-16T18:07:22.330Z,13.90
2019-03-16T18:09:56.859Z,13.90
2019-03-16T18:12:32.848Z,13.70
2019-03-16T18:15:11.543Z,13.70
2019-03-16T18:17:59.610Z,13.50
2019-03-16T18:20:34.736Z,13.40
2019-03-16T18:23:08.158Z,13.30
2019-03-16T18:25:40.187Z,13.20
2019-03-16T18:28:33.049Z,13.10
2019-03-16T18:31:10.682Z,13.00
2019-03-16T18:33:49.031Z,12.90
2019-03-16T18:36:26.416Z,12.80
2019-03-16T18:39:16.728Z,12.70
2019-03-16T18:42:20.098Z,12.60
2019-03-16T18:44:56.994Z,12.40
2019-03-16T18:47:47.334Z,12.30
2019-03-16T18:50:25.253Z,12.20
2019-03-16T18:53:15.975Z,12.10
2019-03-16T18:55:47.284Z,12.00
2019-03-16T18:58:21.721Z,11.90
2019-03-16T19:01:05.996Z,11.80
2019-03-16T19:03:38.317Z,11.80
2019-03-16T19:06:09.073Z,11.70
2019-03-16T19:08:42.475Z,11.60
2019-03-16T19:11:17.185Z,11.50
2019-03-16T19:14:07.001Z,11.40
2019-03-16T19:16:38.478Z,11.40
2019-03-16T19:19:34.273Z,11.30
2019-03-16T19:22:06.407Z,11.20
2019-03-16T19:24:45.856Z,11.00
2019-03-16T19:27:19.263Z,10.90
2019-03-16T19:29:50.653Z,10.70
2019-03-16T19:32:37.650Z,10.60
2019-03-16T19:35:26.607Z,10.50
2019-03-16T19:38:01.653Z,10.50
2019-03-16T19:40:35.120Z,10.40
2019-03-16T19:43:07.783Z,10.30
2019-03-16T19:45:44.832Z,10.20
2019-03-16T19:48:17.757Z,10.20
2019-03-16T19:50:53.676Z,10.10
2019-03-16T19:53:25.651Z,10.10
2019-03-16T19:56:18.947Z,10.00
2019-03-16T19:59:00.513Z,10.00
2019-03-16T20:01:28.269Z,9.90
2019-03-16T20:04:03.797Z,9.90
2019-03-16T20:06:45.235Z,9.80
2019-03-16T20:09:26.275Z,9.80
2019-03-16T20:12:08.557Z,9.70
2019-03-16T20:15:01.027Z,9.60
2019-03-16T20:17:51.784Z,9.50
2019-03-16T20:20:29.171Z,9.40
2019-03-16T20:23:01.325Z,9.30
2019-03-16T20:25:52.991Z,9.30
2019-03-16T20:28:28.503Z,9.20
2019-03-16T20:31:07.874Z,9.20
2019-03-16T20:33:41.648Z,9.10
2019-03-16T20:36:17.777Z,9.10
2019-03-16T20:38:58.052Z,9.00
2019-03-16T20:41:43.826Z,9.00
2019-03-16T20:44:18.390Z,8.90
2019-03-16T20:46:56.850Z,8.90
2019-03-16T20:49:41.893Z,8.80
2019-03-16T20:52:31.875Z,8.80
2019-03-16T20:55:22.020Z,8.80
2019-03-16T20:57:57.724Z,8.70
2019-03-16T21:00:35.408Z,8.70
2019-03-16T21:03:16.156Z,8.60
2019-03-16T21:05:43.132Z,8.50
2019-03-16T21:08:16.851Z,8.50
2019-03-16T21:10:50.739Z,8.40
2019-03-16T21:13:23.150Z,8.30
2019-03-16T21:16:01.823Z,8.30
2019-03-16T21:18:36.803Z,8.30
2019-03-16T21:27:07.423Z,8.20
2019-03-16T21:35:52.255Z,8.20
2019-03-16T21:38:40.125Z,8.10
2019-03-16T21:41:28.168Z,8.10
2019-03-16T21:47:13.319Z,8.00
2019-03-16T21:58:55.959Z,7.90
2019-03-16T22:01:33.195Z,7.90
2019-03-16T22:04:17.679Z,7.80
2019-03-16T22:07:03.313Z,7.90
2019-03-16T22:09:39.490Z,7.80
2019-03-16T22:15:28.356Z,7.80
2019-03-16T22:20:48.302Z,7.70
2019-03-16T22:23:55.390Z,7.70
2019-03-16T22:27:10.926Z,7.60
2019-03-16T22:32:39.824Z,7.50
2019-03-16T22:35:20.839Z,7.50
2019-03-16T22:37:54.137Z,7.50
2019-03-16T22:40:29.879Z,7.40
2019-03-16T22:43:01.357Z,7.40
2019-03-16T22:45:33.948Z,7.30
2019-03-16T22:48:08.883Z,7.30
2019-03-16T22:50:45.538Z,7.20
2019-03-16T22:53:16.892Z,7.20
2019-03-16T23:01:43.471Z,7.30
2019-03-16T23:07:35.169Z,7.40
2019-03-16T23:13:17.971Z,7.40
2019-03-16T23:16:00.876Z,7.40
2019-03-16T23:18:45.542Z,7.30
2019-03-16T23:21:30.627Z,7.20
2019-03-16T23:24:12.898Z,7.10
2019-03-16T23:26:58.438Z,7.00
2019-03-16T23:29:41.788Z,6.90
2019-03-16T23:32:25.590Z,6.60
2019-03-16T23:35:36.131Z,6.50
2019-03-16T23:38:26.143Z,6.30
2019-03-16T23:41:10.005Z,6.20
2019-03-16T23:43:52.961Z,6.10
2019-03-16T23:46:38.514Z,6.00
2019-03-16T23:52:04.942Z,5.80
2019-03-16T23:54:48.150Z,5.70
2019-03-16T23:57:30.357Z,5.60
